sensor_id;sensor_type;location;lat;lon;timestamp;temperature;humidity
83650;DHT22;73612;50.948;6.956;2024-01-07T00:02:52;3.60;99.90
83650;DHT22;73612;50.948;6.956;2024-01-07T00:25:00;3.70;99.90
83650;DHT22;73612;50.948;6.956;2024-01-07T00:30:42;3.80;99.90
83650;DHT22;73612;50.948;6.956;2024-01-07T00:33:11;3.80;99.90
83650;DHT22;73612;50.948;6.956;2024-01-07T00:38:20;3.80;99.90
83650;DHT22;73612;50.948;6.956;2024-01-07T00:40:54;3.70;99.90
83650;DHT22;73612;50.948;6.956;2024-01-07T00:43:22;3.70;99.90
83650;DHT22;73612;50.948;6.956;2024-01-07T00:48:38;3.80;99.90
83650;DHT22;73612;50.948;6.956;2024-01-07T00:51:19;3.80;99.90
83650;DHT22;73612;50.948;6.956;2024-01-07T00:53:58;3.80;99.90
83650;DHT22;73612;50.948;6.956;2024-01-07T00:59:06;3.70;99.90
83650;DHT22;73612;50.948;6.956;2024-01-07T01:01:36;3.70;99.90
83650;DHT22;73612;50.948;6.956;2024-01-07T01:04:13;3.70;99.90
83650;DHT22;73612;50.948;6.956;2024-01-07T01:06:45;3.70;99.90
83650;DHT22;73612;50.948;6.956;2024-01-07T01:09:12;3.80;99.90
83650;DHT22;73612;50.948;6.956;2024-01-07T01:11:39;3.70;99.90
83650;DHT22;73612;50.948;6.956;2024-01-07T01:14:06;3.70;99.90
83650;DHT22;73612;50.948;6.956;2024-01-07T01:16:33;3.70;99.90
83650;DHT22;73612;50.948;6.956;2024-01-07T01:19:00;3.70;99.90
83650;DHT22;73612;50.948;6.956;2024-01-07T01:21:27;3.70;99.90
83650;DHT22;73612;50.948;6.956;2024-01-07T01:23:53;3.70;99.90
83650;DHT22;73612;50.948;6.956;2024-01-07T01:26:21;3.70;99.90
83650;DHT22;73612;50.948;6.956;2024-01-07T01:28:48;3.70;99.90
83650;DHT22;73612;50.948;6.956;2024-01-07T01:31:15;3.60;99.90
83650;DHT22;73612;50.948;6.956;2024-01-07T01:33:41;3.70;99.90
83650;DHT22;73612;50.948;6.956;2024-01-07T01:36:09;3.70;99.90
83650;DHT22;73612;50.948;6.956;2024-01-07T01:38:37;3.70;99.90
83650;DHT22;73612;50.948;6.956;2024-01-07T01:41:04;3.60;99.90
83650;DHT22;73612;50.948;6.956;2024-01-07T01:43:30;3.70;99.90
83650;DHT22;73612;50.948;6.956;2024-01-07T01:45:58;3.80;99.90
83650;DHT22;73612;50.948;6.956;2024-01-07T01:48:26;3.80;99.90
83650;DHT22;73612;50.948;6.956;2024-01-07T01:50:52;3.70;99.90
83650;DHT22;73612;50.948;6.956;2024-01-07T01:53:18;3.70;99.90
83650;DHT22;73612;50.948;6.956;2024-01-07T01:55:47;3.70;99.90
83650;DHT22;73612;50.948;6.956;2024-01-07T01:58:14;3.70;99.90
83650;DHT22;73612;50.948;6.956;2024-01-07T02:00:43;3.70;99.90
83650;DHT22;73612;50.948;6.956;2024-01-07T02:03:09;3.80;99.90
83650;DHT22;73612;50.948;6.956;2024-01-07T02:05:36;3.80;99.90
83650;DHT22;73612;50.948;6.956;2024-01-07T02:08:05;3.80;99.90
83650;DHT22;73612;50.948;6.956;2024-01-07T02:10:35;3.90;99.90
83650;DHT22;73612;50.948;6.956;2024-01-07T02:13:18;3.80;99.90
83650;DHT22;73612;50.948;6.956;2024-01-07T02:15:45;3.90;99.90
83650;DHT22;73612;50.948;6.956;2024-01-07T02:18:13;3.90;99.90
83650;DHT22;73612;50.948;6.956;2024-01-07T02:20:40;3.90;99.90
83650;DHT22;73612;50.948;6.956;2024-01-07T02:23:07;3.80;99.90
83650;DHT22;73612;50.948;6.956;2024-01-07T02:25:37;3.80;99.80
83650;DHT22;73612;50.948;6.956;2024-01-07T02:28:08;3.80;99.80
83650;DHT22;73612;50.948;6.956;2024-01-07T02:30:52;3.80;99.90
83650;DHT22;73612;50.948;6.956;2024-01-07T02:33:25;3.80;99.80
83650;DHT22;73612;50.948;6.956;2024-01-07T02:35:55;3.80;99.70
83650;DHT22;73612;50.948;6.956;2024-01-07T02:38:33;3.80;99.60
83650;DHT22;73612;50.948;6.956;2024-01-07T02:41:03;3.80;99.60
83650;DHT22;73612;50.948;6.956;2024-01-07T02:43:29;3.80;99.70
83650;DHT22;73612;50.948;6.956;2024-01-07T02:45:56;3.80;99.70
83650;DHT22;73612;50.948;6.956;2024-01-07T02:48:23;3.90;99.80
83650;DHT22;73612;50.948;6.956;2024-01-07T02:50:49;3.80;99.60
83650;DHT22;73612;50.948;6.956;2024-01-07T02:53:16;3.90;99.40
83650;DHT22;73612;50.948;6.956;2024-01-07T02:55:42;3.90;99.40
83650;DHT22;73612;50.948;6.956;2024-01-07T02:58:09;3.90;99.40
83650;DHT22;73612;50.948;6.956;2024-01-07T03:00:36;3.90;99.50
83650;DHT22;73612;50.948;6.956;2024-01-07T03:03:04;3.80;99.30
83650;DHT22;73612;50.948;6.956;2024-01-07T03:05:30;3.80;99.30
83650;DHT22;73612;50.948;6.956;2024-01-07T03:07:57;3.80;99.30
83650;DHT22;73612;50.948;6.956;2024-01-07T03:10:24;3.70;99.40
83650;DHT22;73612;50.948;6.956;2024-01-07T03:12:51;3.70;99.40
83650;DHT22;73612;50.948;6.956;2024-01-07T03:15:18;3.70;99.50
83650;DHT22;73612;50.948;6.956;2024-01-07T03:17:51;3.70;99.90
83650;DHT22;73612;50.948;6.956;2024-01-07T03:20:24;3.70;99.90
83650;DHT22;73612;50.948;6.956;2024-01-07T03:23:00;3.70;99.90
83650;DHT22;73612;50.948;6.956;2024-01-07T03:25:41;3.60;99.90
83650;DHT22;73612;50.948;6.956;2024-01-07T03:28:10;3.60;99.90
83650;DHT22;73612;50.948;6.956;2024-01-07T03:30:37;3.60;99.90
83650;DHT22;73612;50.948;6.956;2024-01-07T03:33:16;3.60;99.90
83650;DHT22;73612;50.948;6.956;2024-01-07T03:38:43;3.60;99.90
83650;DHT22;73612;50.948;6.956;2024-01-07T03:41:41;3.60;99.90
83650;DHT22;73612;50.948;6.956;2024-01-07T03:44:14;3.60;99.90
83650;DHT22;73612;50.948;6.956;2024-01-07T03:46:50;3.60;99.90
83650;DHT22;73612;50.948;6.956;2024-01-07T03:54:47;3.60;99.90
83650;DHT22;73612;50.948;6.956;2024-01-07T03:57:35;3.60;99.90
83650;DHT22;73612;50.948;6.956;2024-01-07T04:00:11;3.50;99.90
83650;DHT22;73612;50.948;6.956;2024-01-07T04:02:37;3.50;99.90
83650;DHT22;73612;50.948;6.956;2024-01-07T04:05:13;3.50;99.90
83650;DHT22;73612;50.948;6.956;2024-01-07T04:07:45;3.60;99.90
83650;DHT22;73612;50.948;6.956;2024-01-07T04:10:17;3.60;99.90
83650;DHT22;73612;50.948;6.956;2024-01-07T04:15:40;3.60;99.90
83650;DHT22;73612;50.948;6.956;2024-01-07T04:18:21;3.60;99.90
83650;DHT22;73612;50.948;6.956;2024-01-07T04:20:53;3.60;99.80
83650;DHT22;73612;50.948;6.956;2024-01-07T04:23:25;3.50;99.70
83650;DHT22;73612;50.948;6.956;2024-01-07T04:25:55;3.40;99.70
83650;DHT22;73612;50.948;6.956;2024-01-07T04:28:29;3.50;99.90
83650;DHT22;73612;50.948;6.956;2024-01-07T04:31:03;3.50;99.90
83650;DHT22;73612;50.948;6.956;2024-01-07T04:33:36;3.50;99.90
83650;DHT22;73612;50.948;6.956;2024-01-07T04:36:22;3.50;99.90
83650;DHT22;73612;50.948;6.956;2024-01-07T04:39:03;3.60;99.90
83650;DHT22;73612;50.948;6.956;2024-01-07T04:44:09;3.60;99.90
83650;DHT22;73612;50.948;6.956;2024-01-07T04:46:38;3.60;99.90
83650;DHT22;73612;50.948;6.956;2024-01-07T04:49:04;3.70;99.90
83650;DHT22;73612;50.948;6.956;2024-01-07T04:51:30;3.70;99.90
83650;DHT22;73612;50.948;6.956;2024-01-07T04:53:57;3.60;99.90
83650;DHT22;73612;50.948;6.956;2024-01-07T04:56:30;3.50;99.70
83650;DHT22;73612;50.948;6.956;2024-01-07T05:01:35;3.40;99.90
83650;DHT22;73612;50.948;6.956;2024-01-07T05:09:35;3.40;99.90
83650;DHT22;73612;50.948;6.956;2024-01-07T05:12:21;3.40;99.90
83650;DHT22;73612;50.948;6.956;2024-01-07T05:14:58;3.40;99.90
83650;DHT22;73612;50.948;6.956;2024-01-07T05:17:31;3.40;99.90
83650;DHT22;73612;50.948;6.956;2024-01-07T05:20:07;3.30;99.90
83650;DHT22;73612;50.948;6.956;2024-01-07T05:22:42;3.30;99.90
83650;DHT22;73612;50.948;6.956;2024-01-07T05:25:09;3.40;99.90
83650;DHT22;73612;50.948;6.956;2024-01-07T05:27:35;3.40;99.90
83650;DHT22;73612;50.948;6.956;2024-01-07T05:30:02;3.50;99.90
83650;DHT22;73612;50.948;6.956;2024-01-07T05:32:29;3.50;99.90
83650;DHT22;73612;50.948;6.956;2024-01-07T05:34:56;3.50;99.90
83650;DHT22;73612;50.948;6.956;2024-01-07T05:37:22;3.40;99.90
83650;DHT22;73612;50.948;6.956;2024-01-07T05:39:49;3.40;99.90
83650;DHT22;73612;50.948;6.956;2024-01-07T05:42:29;3.40;99.90
83650;DHT22;73612;50.948;6.956;2024-01-07T05:45:06;3.40;99.80
83650;DHT22;73612;50.948;6.956;2024-01-07T05:47:38;3.40;99.60
83650;DHT22;73612;50.948;6.956;2024-01-07T05:50:14;3.30;99.40
83650;DHT22;73612;50.948;6.956;2024-01-07T05:52:49;3.40;99.50
83650;DHT22;73612;50.948;6.956;2024-01-07T05:55:22;3.40;99.50
83650;DHT22;73612;50.948;6.956;2024-01-07T05:57:56;3.40;99.50
83650;DHT22;73612;50.948;6.956;2024-01-07T06:00:24;3.40;99.20
83650;DHT22;73612;50.948;6.956;2024-01-07T06:03:04;3.40;99.10
83650;DHT22;73612;50.948;6.956;2024-01-07T06:05:39;3.30;99.00
83650;DHT22;73612;50.948;6.956;2024-01-07T06:08:07;3.30;98.90
83650;DHT22;73612;50.948;6.956;2024-01-07T06:10:34;3.30;98.90
83650;DHT22;73612;50.948;6.956;2024-01-07T06:13:00;3.30;99.00
83650;DHT22;73612;50.948;6.956;2024-01-07T06:15:27;3.30;99.00
83650;DHT22;73612;50.948;6.956;2024-01-07T06:17:53;3.30;99.00
83650;DHT22;73612;50.948;6.956;2024-01-07T06:20:20;3.40;99.00
83650;DHT22;73612;50.948;6.956;2024-01-07T06:22:47;3.40;99.00
83650;DHT22;73612;50.948;6.956;2024-01-07T06:25:20;3.40;98.90
83650;DHT22;73612;50.948;6.956;2024-01-07T06:27:57;3.40;98.70
83650;DHT22;73612;50.948;6.956;2024-01-07T06:30:34;3.40;98.60
83650;DHT22;73612;50.948;6.956;2024-01-07T06:33:06;3.40;98.60
83650;DHT22;73612;50.948;6.956;2024-01-07T06:35:47;3.40;98.60
83650;DHT22;73612;50.948;6.956;2024-01-07T06:38:21;3.40;98.50
83650;DHT22;73612;50.948;6.956;2024-01-07T06:40:56;3.40;98.50
83650;DHT22;73612;50.948;6.956;2024-01-07T06:43:28;3.40;98.50
83650;DHT22;73612;50.948;6.956;2024-01-07T06:46:06;3.40;98.50
83650;DHT22;73612;50.948;6.956;2024-01-07T06:49:10;3.40;98.20
83650;DHT22;73612;50.948;6.956;2024-01-07T06:51:27;3.30;98.20
83650;DHT22;73612;50.948;6.956;2024-01-07T06:53:54;3.30;98.20
83650;DHT22;73612;50.948;6.956;2024-01-07T06:56:20;3.30;98.30
83650;DHT22;73612;50.948;6.956;2024-01-07T06:58:47;3.30;98.30
83650;DHT22;73612;50.948;6.956;2024-01-07T07:01:13;3.30;98.30
83650;DHT22;73612;50.948;6.956;2024-01-07T07:03:40;3.30;98.30
83650;DHT22;73612;50.948;6.956;2024-01-07T07:06:07;3.30;98.30
83650;DHT22;73612;50.948;6.956;2024-01-07T07:08:33;3.30;98.30
83650;DHT22;73612;50.948;6.956;2024-01-07T07:11:00;3.30;98.20
83650;DHT22;73612;50.948;6.956;2024-01-07T07:13:26;3.30;98.10
83650;DHT22;73612;50.948;6.956;2024-01-07T07:15:53;3.30;98.10
83650;DHT22;73612;50.948;6.956;2024-01-07T07:18:20;3.20;97.90
83650;DHT22;73612;50.948;6.956;2024-01-07T07:20:46;3.20;98.00
83650;DHT22;73612;50.948;6.956;2024-01-07T07:23:13;3.30;97.90
83650;DHT22;73612;50.948;6.956;2024-01-07T07:25:39;3.20;97.80
83650;DHT22;73612;50.948;6.956;2024-01-07T07:28:06;3.30;97.90
83650;DHT22;73612;50.948;6.956;2024-01-07T07:30:33;3.30;97.70
83650;DHT22;73612;50.948;6.956;2024-01-07T07:32:59;3.30;98.00
83650;DHT22;73612;50.948;6.956;2024-01-07T07:35:26;3.30;97.60
83650;DHT22;73612;50.948;6.956;2024-01-07T07:37:52;3.30;97.40
83650;DHT22;73612;50.948;6.956;2024-01-07T07:40:19;3.30;97.40
83650;DHT22;73612;50.948;6.956;2024-01-07T07:42:46;3.30;97.40
83650;DHT22;73612;50.948;6.956;2024-01-07T07:45:12;3.20;97.10
83650;DHT22;73612;50.948;6.956;2024-01-07T07:47:39;3.20;97.20
83650;DHT22;73612;50.948;6.956;2024-01-07T07:50:07;3.30;97.30
83650;DHT22;73612;50.948;6.956;2024-01-07T07:52:34;3.30;97.20
83650;DHT22;73612;50.948;6.956;2024-01-07T07:55:00;3.20;97.00
83650;DHT22;73612;50.948;6.956;2024-01-07T07:57:27;3.20;97.00
83650;DHT22;73612;50.948;6.956;2024-01-07T07:59:54;3.20;97.00
83650;DHT22;73612;50.948;6.956;2024-01-07T08:02:22;3.20;97.20
83650;DHT22;73612;50.948;6.956;2024-01-07T08:04:49;3.20;97.00
83650;DHT22;73612;50.948;6.956;2024-01-07T08:07:27;3.10;96.80
83650;DHT22;73612;50.948;6.956;2024-01-07T08:10:12;3.10;97.10
83650;DHT22;73612;50.948;6.956;2024-01-07T08:12:47;3.20;97.30
83650;DHT22;73612;50.948;6.956;2024-01-07T08:15:22;3.20;97.30
83650;DHT22;73612;50.948;6.956;2024-01-07T08:17:58;3.20;97.30
83650;DHT22;73612;50.948;6.956;2024-01-07T08:23:11;3.30;97.50
83650;DHT22;73612;50.948;6.956;2024-01-07T08:25:51;3.30;97.30
83650;DHT22;73612;50.948;6.956;2024-01-07T08:28:20;3.30;97.20
83650;DHT22;73612;50.948;6.956;2024-01-07T08:30:53;3.30;97.00
83650;DHT22;73612;50.948;6.956;2024-01-07T08:33:19;3.30;96.90
83650;DHT22;73612;50.948;6.956;2024-01-07T08:35:46;3.30;97.00
83650;DHT22;73612;50.948;6.956;2024-01-07T08:38:12;3.30;97.10
83650;DHT22;73612;50.948;6.956;2024-01-07T08:40:39;3.30;97.20
83650;DHT22;73612;50.948;6.956;2024-01-07T08:43:06;3.30;96.90
83650;DHT22;73612;50.948;6.956;2024-01-07T08:45:36;3.30;97.00
83650;DHT22;73612;50.948;6.956;2024-01-07T08:48:22;3.20;96.90
83650;DHT22;73612;50.948;6.956;2024-01-07T08:50:58;3.20;97.00
83650;DHT22;73612;50.948;6.956;2024-01-07T08:53:31;3.20;97.00
83650;DHT22;73612;50.948;6.956;2024-01-07T08:56:09;3.20;97.10
83650;DHT22;73612;50.948;6.956;2024-01-07T08:58:56;3.20;97.20
83650;DHT22;73612;50.948;6.956;2024-01-07T09:01:43;3.20;97.30
83650;DHT22;73612;50.948;6.956;2024-01-07T09:04:23;3.20;97.20
83650;DHT22;73612;50.948;6.956;2024-01-07T09:07:01;3.20;97.20
83650;DHT22;73612;50.948;6.956;2024-01-07T09:09:41;3.20;97.10
83650;DHT22;73612;50.948;6.956;2024-01-07T09:12:08;3.20;97.10
83650;DHT22;73612;50.948;6.956;2024-01-07T09:14:55;3.20;97.20
83650;DHT22;73612;50.948;6.956;2024-01-07T09:17:36;3.20;97.10
83650;DHT22;73612;50.948;6.956;2024-01-07T09:20:21;3.20;97.10
83650;DHT22;73612;50.948;6.956;2024-01-07T09:22:58;3.20;97.10
83650;DHT22;73612;50.948;6.956;2024-01-07T09:25:27;3.20;97.00
83650;DHT22;73612;50.948;6.956;2024-01-07T09:28:07;3.20;97.20
83650;DHT22;73612;50.948;6.956;2024-01-07T09:30:44;3.20;97.30
83650;DHT22;73612;50.948;6.956;2024-01-07T09:33:18;3.10;97.30
83650;DHT22;73612;50.948;6.956;2024-01-07T09:35:57;3.10;96.70
83650;DHT22;73612;50.948;6.956;2024-01-07T09:38:31;3.10;96.70
83650;DHT22;73612;50.948;6.956;2024-01-07T09:40:58;3.10;96.20
83650;DHT22;73612;50.948;6.956;2024-01-07T09:43:25;3.10;96.10
83650;DHT22;73612;50.948;6.956;2024-01-07T09:45:51;3.10;96.10
83650;DHT22;73612;50.948;6.956;2024-01-07T09:48:18;3.10;95.80
83650;DHT22;73612;50.948;6.956;2024-01-07T09:50:44;3.20;95.70
83650;DHT22;73612;50.948;6.956;2024-01-07T09:53:12;3.10;95.60
83650;DHT22;73612;50.948;6.956;2024-01-07T09:55:40;3.10;95.50
83650;DHT22;73612;50.948;6.956;2024-01-07T09:58:05;3.20;95.50
83650;DHT22;73612;50.948;6.956;2024-01-07T10:00:32;3.20;95.20
83650;DHT22;73612;50.948;6.956;2024-01-07T10:03:05;3.30;95.40
83650;DHT22;73612;50.948;6.956;2024-01-07T10:08:32;3.50;95.50
83650;DHT22;73612;50.948;6.956;2024-01-07T10:11:16;3.60;95.00
83650;DHT22;73612;50.948;6.956;2024-01-07T10:13:55;3.60;94.70
83650;DHT22;73612;50.948;6.956;2024-01-07T10:22:06;3.70;94.90
83650;DHT22;73612;50.948;6.956;2024-01-07T10:24:38;3.70;94.90
83650;DHT22;73612;50.948;6.956;2024-01-07T10:29:40;3.80;94.70
83650;DHT22;73612;50.948;6.956;2024-01-07T10:40:41;3.40;94.40
83650;DHT22;73612;50.948;6.956;2024-01-07T10:43:15;3.40;94.90
83650;DHT22;73612;50.948;6.956;2024-01-07T10:48:46;3.50;94.90
83650;DHT22;73612;50.948;6.956;2024-01-07T10:51:31;3.50;94.70
83650;DHT22;73612;50.948;6.956;2024-01-07T10:54:15;3.70;94.90
83650;DHT22;73612;50.948;6.956;2024-01-07T10:56:46;3.70;94.80
83650;DHT22;73612;50.948;6.956;2024-01-07T10:59:13;3.70;93.90
83650;DHT22;73612;50.948;6.956;2024-01-07T11:04:48;3.60;93.70
83650;DHT22;73612;50.948;6.956;2024-01-07T11:07:38;3.50;93.50
83650;DHT22;73612;50.948;6.956;2024-01-07T11:10:22;3.50;93.80
83650;DHT22;73612;50.948;6.956;2024-01-07T11:12:55;3.50;94.00
83650;DHT22;73612;50.948;6.956;2024-01-07T11:18:16;3.50;93.50
83650;DHT22;73612;50.948;6.956;2024-01-07T11:20:43;3.70;93.80
83650;DHT22;73612;50.948;6.956;2024-01-07T11:25:51;3.80;92.50
83650;DHT22;73612;50.948;6.956;2024-01-07T11:28:18;3.80;92.50
83650;DHT22;73612;50.948;6.956;2024-01-07T11:30:47;3.80;92.90
83650;DHT22;73612;50.948;6.956;2024-01-07T11:33:17;3.80;93.00
83650;DHT22;73612;50.948;6.956;2024-01-07T11:35:54;3.80;92.90
83650;DHT22;73612;50.948;6.956;2024-01-07T11:38:26;3.70;92.60
83650;DHT22;73612;50.948;6.956;2024-01-07T11:40:56;3.70;92.90
83650;DHT22;73612;50.948;6.956;2024-01-07T11:43:39;3.70;92.70
83650;DHT22;73612;50.948;6.956;2024-01-07T11:46:18;3.60;92.30
83650;DHT22;73612;50.948;6.956;2024-01-07T11:48:46;3.60;92.80
83650;DHT22;73612;50.948;6.956;2024-01-07T11:51:16;3.50;93.20
83650;DHT22;73612;50.948;6.956;2024-01-07T11:53:52;3.50;92.80
83650;DHT22;73612;50.948;6.956;2024-01-07T11:56:22;3.40;92.60
83650;DHT22;73612;50.948;6.956;2024-01-07T11:58:56;3.30;92.40
83650;DHT22;73612;50.948;6.956;2024-01-07T12:01:29;3.30;92.40
83650;DHT22;73612;50.948;6.956;2024-01-07T12:03:55;3.20;92.80
83650;DHT22;73612;50.948;6.956;2024-01-07T12:06:22;3.20;93.40
83650;DHT22;73612;50.948;6.956;2024-01-07T12:08:49;3.30;93.30
83650;DHT22;73612;50.948;6.956;2024-01-07T12:11:17;3.40;93.00
83650;DHT22;73612;50.948;6.956;2024-01-07T12:13:44;3.40;92.30
83650;DHT22;73612;50.948;6.956;2024-01-07T12:16:15;3.30;92.10
83650;DHT22;73612;50.948;6.956;2024-01-07T12:18:49;3.30;92.30
83650;DHT22;73612;50.948;6.956;2024-01-07T12:21:19;3.30;92.30
83650;DHT22;73612;50.948;6.956;2024-01-07T12:23:54;3.20;92.60
83650;DHT22;73612;50.948;6.956;2024-01-07T12:35:01;3.30;92.50
83650;DHT22;73612;50.948;6.956;2024-01-07T12:37:45;3.40;92.20
83650;DHT22;73612;50.948;6.956;2024-01-07T12:40:27;3.30;92.10
83650;DHT22;73612;50.948;6.956;2024-01-07T12:45:41;3.70;92.40
83650;DHT22;73612;50.948;6.956;2024-01-07T12:48:26;3.90;91.80
83650;DHT22;73612;50.948;6.956;2024-01-07T12:50:53;4.30;92.40
83650;DHT22;73612;50.948;6.956;2024-01-07T12:53:19;4.80;95.80
83650;DHT22;73612;50.948;6.956;2024-01-07T12:55:46;5.20;98.00
83650;DHT22;73612;50.948;6.956;2024-01-07T12:58:13;5.30;98.60
83650;DHT22;73612;50.948;6.956;2024-01-07T13:00:39;5.30;98.60
83650;DHT22;73612;50.948;6.956;2024-01-07T13:03:06;5.20;98.90
83650;DHT22;73612;50.948;6.956;2024-01-07T13:05:33;5.20;99.40
83650;DHT22;73612;50.948;6.956;2024-01-07T13:07:59;5.00;99.10
83650;DHT22;73612;50.948;6.956;2024-01-07T13:10:26;4.90;99.40
83650;DHT22;73612;50.948;6.956;2024-01-07T13:12:52;4.70;98.40
83650;DHT22;73612;50.948;6.956;2024-01-07T13:15:19;4.60;98.40
83650;DHT22;73612;50.948;6.956;2024-01-07T13:17:46;4.50;98.50
83650;DHT22;73612;50.948;6.956;2024-01-07T13:20:12;4.50;98.60
83650;DHT22;73612;50.948;6.956;2024-01-07T13:22:39;4.50;98.70
83650;DHT22;73612;50.948;6.956;2024-01-07T13:25:06;4.40;98.60
83650;DHT22;73612;50.948;6.956;2024-01-07T13:27:32;4.40;98.90
83650;DHT22;73612;50.948;6.956;2024-01-07T13:29:59;4.40;99.10
83650;DHT22;73612;50.948;6.956;2024-01-07T13:32:25;4.30;99.00
83650;DHT22;73612;50.948;6.956;2024-01-07T13:34:52;4.10;98.60
83650;DHT22;73612;50.948;6.956;2024-01-07T13:37:19;4.00;98.90
83650;DHT22;73612;50.948;6.956;2024-01-07T13:39:45;4.00;99.30
83650;DHT22;73612;50.948;6.956;2024-01-07T13:42:13;4.00;99.90
83650;DHT22;73612;50.948;6.956;2024-01-07T13:44:39;3.80;93.10
83650;DHT22;73612;50.948;6.956;2024-01-07T13:47:06;3.80;92.30
83650;DHT22;73612;50.948;6.956;2024-01-07T13:49:32;3.70;91.60
83650;DHT22;73612;50.948;6.956;2024-01-07T13:51:59;3.50;90.70
83650;DHT22;73612;50.948;6.956;2024-01-07T13:54:26;3.40;90.60
83650;DHT22;73612;50.948;6.956;2024-01-07T13:56:52;3.20;90.40
83650;DHT22;73612;50.948;6.956;2024-01-07T13:59:19;3.10;91.10
83650;DHT22;73612;50.948;6.956;2024-01-07T14:01:46;3.00;91.30
83650;DHT22;73612;50.948;6.956;2024-01-07T14:04:12;2.90;91.30
83650;DHT22;73612;50.948;6.956;2024-01-07T14:06:39;2.80;91.40
83650;DHT22;73612;50.948;6.956;2024-01-07T14:09:05;2.70;91.30
83650;DHT22;73612;50.948;6.956;2024-01-07T14:11:32;2.70;91.30
83650;DHT22;73612;50.948;6.956;2024-01-07T14:13:59;2.50;90.70
83650;DHT22;73612;50.948;6.956;2024-01-07T14:16:25;2.50;91.10
83650;DHT22;73612;50.948;6.956;2024-01-07T14:18:52;2.40;91.30
83650;DHT22;73612;50.948;6.956;2024-01-07T14:21:18;2.40;91.40
83650;DHT22;73612;50.948;6.956;2024-01-07T14:23:45;2.40;91.50
83650;DHT22;73612;50.948;6.956;2024-01-07T14:26:12;2.30;91.30
83650;DHT22;73612;50.948;6.956;2024-01-07T14:28:38;2.30;91.10
83650;DHT22;73612;50.948;6.956;2024-01-07T14:31:05;2.20;90.80
83650;DHT22;73612;50.948;6.956;2024-01-07T14:33:32;2.20;91.00
83650;DHT22;73612;50.948;6.956;2024-01-07T14:35:58;2.10;90.20
83650;DHT22;73612;50.948;6.956;2024-01-07T14:38:25;2.00;90.30
83650;DHT22;73612;50.948;6.956;2024-01-07T14:40:51;2.00;90.30
83650;DHT22;73612;50.948;6.956;2024-01-07T14:43:18;1.90;87.50
83650;DHT22;73612;50.948;6.956;2024-01-07T14:45:45;1.80;87.40
83650;DHT22;73612;50.948;6.956;2024-01-07T14:48:11;1.70;87.80
83650;DHT22;73612;50.948;6.956;2024-01-07T14:50:38;1.70;88.50
83650;DHT22;73612;50.948;6.956;2024-01-07T14:53:04;1.70;88.40
83650;DHT22;73612;50.948;6.956;2024-01-07T14:55:31;1.70;87.70
83650;DHT22;73612;50.948;6.956;2024-01-07T14:57:58;1.70;88.90
83650;DHT22;73612;50.948;6.956;2024-01-07T15:00:24;1.60;88.30
83650;DHT22;73612;50.948;6.956;2024-01-07T15:02:51;1.60;87.50
83650;DHT22;73612;50.948;6.956;2024-01-07T15:05:17;1.60;87.60
83650;DHT22;73612;50.948;6.956;2024-01-07T15:07:44;1.60;87.60
83650;DHT22;73612;50.948;6.956;2024-01-07T15:10:11;1.50;86.50
83650;DHT22;73612;50.948;6.956;2024-01-07T15:12:37;1.40;86.40
83650;DHT22;73612;50.948;6.956;2024-01-07T15:15:04;1.40;86.70
83650;DHT22;73612;50.948;6.956;2024-01-07T15:17:31;1.40;87.10
83650;DHT22;73612;50.948;6.956;2024-01-07T15:19:57;1.40;87.00
83650;DHT22;73612;50.948;6.956;2024-01-07T15:22:24;1.40;88.50
83650;DHT22;73612;50.948;6.956;2024-01-07T15:24:50;1.50;89.20
83650;DHT22;73612;50.948;6.956;2024-01-07T15:27:17;1.50;88.50
83650;DHT22;73612;50.948;6.956;2024-01-07T15:29:44;1.50;88.00
83650;DHT22;73612;50.948;6.956;2024-01-07T15:32:10;1.50;88.50
83650;DHT22;73612;50.948;6.956;2024-01-07T15:34:37;1.50;87.80
83650;DHT22;73612;50.948;6.956;2024-01-07T15:37:03;1.50;87.00
83650;DHT22;73612;50.948;6.956;2024-01-07T15:39:30;1.50;87.60
83650;DHT22;73612;50.948;6.956;2024-01-07T15:41:57;1.40;86.10
83650;DHT22;73612;50.948;6.956;2024-01-07T15:44:23;1.40;86.60
83650;DHT22;73612;50.948;6.956;2024-01-07T15:46:50;1.40;86.40
83650;DHT22;73612;50.948;6.956;2024-01-07T15:49:16;1.40;86.60
83650;DHT22;73612;50.948;6.956;2024-01-07T15:51:43;1.50;85.70
83650;DHT22;73612;50.948;6.956;2024-01-07T15:54:10;1.50;86.10
83650;DHT22;73612;50.948;6.956;2024-01-07T15:56:36;1.50;86.40
83650;DHT22;73612;50.948;6.956;2024-01-07T15:59:03;1.50;85.00
83650;DHT22;73612;50.948;6.956;2024-01-07T16:01:30;1.50;85.40
83650;DHT22;73612;50.948;6.956;2024-01-07T16:03:56;1.40;84.50
83650;DHT22;73612;50.948;6.956;2024-01-07T16:06:23;1.50;84.80
83650;DHT22;73612;50.948;6.956;2024-01-07T16:08:50;1.40;85.00
83650;DHT22;73612;50.948;6.956;2024-01-07T16:11:17;1.40;84.70
83650;DHT22;73612;50.948;6.956;2024-01-07T16:13:44;1.40;86.00
83650;DHT22;73612;50.948;6.956;2024-01-07T16:16:11;1.40;84.10
83650;DHT22;73612;50.948;6.956;2024-01-07T16:18:38;1.40;84.70
83650;DHT22;73612;50.948;6.956;2024-01-07T16:21:05;1.40;84.20
83650;DHT22;73612;50.948;6.956;2024-01-07T16:23:32;1.40;83.90
83650;DHT22;73612;50.948;6.956;2024-01-07T16:25:59;1.30;83.80
83650;DHT22;73612;50.948;6.956;2024-01-07T16:28:26;1.30;84.80
83650;DHT22;73612;50.948;6.956;2024-01-07T16:30:52;1.30;84.30
83650;DHT22;73612;50.948;6.956;2024-01-07T16:33:19;1.40;84.80
83650;DHT22;73612;50.948;6.956;2024-01-07T16:35:45;1.40;84.40
83650;DHT22;73612;50.948;6.956;2024-01-07T16:38:12;1.40;84.20
83650;DHT22;73612;50.948;6.956;2024-01-07T16:40:39;1.40;83.40
83650;DHT22;73612;50.948;6.956;2024-01-07T16:43:05;1.30;82.20
83650;DHT22;73612;50.948;6.956;2024-01-07T16:45:32;1.40;83.40
83650;DHT22;73612;50.948;6.956;2024-01-07T16:47:59;1.30;84.20
83650;DHT22;73612;50.948;6.956;2024-01-07T16:50:25;1.40;85.00
83650;DHT22;73612;50.948;6.956;2024-01-07T16:52:52;1.40;83.30
83650;DHT22;73612;50.948;6.956;2024-01-07T16:55:18;1.40;84.20
83650;DHT22;73612;50.948;6.956;2024-01-07T16:57:45;1.40;85.00
83650;DHT22;73612;50.948;6.956;2024-01-07T17:00:12;1.50;84.90
83650;DHT22;73612;50.948;6.956;2024-01-07T17:02:39;1.50;85.10
83650;DHT22;73612;50.948;6.956;2024-01-07T17:05:06;1.50;84.30
83650;DHT22;73612;50.948;6.956;2024-01-07T17:07:32;1.50;85.00
83650;DHT22;73612;50.948;6.956;2024-01-07T17:09:59;1.50;84.00
83650;DHT22;73612;50.948;6.956;2024-01-07T17:12:26;1.50;84.60
83650;DHT22;73612;50.948;6.956;2024-01-07T17:14:52;1.50;84.50
83650;DHT22;73612;50.948;6.956;2024-01-07T17:17:19;1.50;85.20
83650;DHT22;73612;50.948;6.956;2024-01-07T17:19:47;1.60;85.00
83650;DHT22;73612;50.948;6.956;2024-01-07T17:22:13;1.60;84.90
83650;DHT22;73612;50.948;6.956;2024-01-07T17:24:41;1.60;83.80
83650;DHT22;73612;50.948;6.956;2024-01-07T17:27:06;1.50;82.00
83650;DHT22;73612;50.948;6.956;2024-01-07T17:29:33;1.50;82.30
83650;DHT22;73612;50.948;6.956;2024-01-07T17:31:59;1.50;81.40
83650;DHT22;73612;50.948;6.956;2024-01-07T17:34:26;1.50;82.80
83650;DHT22;73612;50.948;6.956;2024-01-07T17:36:53;1.50;82.40
83650;DHT22;73612;50.948;6.956;2024-01-07T17:39:19;1.50;83.20
83650;DHT22;73612;50.948;6.956;2024-01-07T17:41:46;1.50;83.20